Time,TemperatureF,DewpointF,PressureIn,WindDirection,WindDirectionDegrees,WindSpeedMPH,WindSpeedGustMPH,Humidity,HourlyPrecipIn,Conditions,Clouds,dailyrainin,SoftwareType,DateUTC
2013-11-13 00:07:00,59.6,18.0,30.11,North,5,0.0,0.0,20,0.00,,,0.00,weatherlink.com 1.10,2013-11-13 08:07:00,
2013-11-13 00:23:00,59.2,19.0,30.11,North,5,0.0,0.0,21,0.00,,,0.00,weatherlink.com 1.10,2013-11-13 08:23:00,
2013-11-13 00:38:00,58.1,19.0,30.11,NNE,29,0.0,0.0,22,0.00,,,0.00,weatherlink.com 1.10,2013-11-13 08:38:00,
2013-11-13 00:53:00,57.0,20.0,30.10,NNE,18,0.0,0.0,24,0.00,,,0.00,weatherlink.com 1.10,2013-11-13 08:53:00,
2013-11-13 01:08:00,57.4,21.0,30.10,North,9,0.0,0.0,24,0.00,,,0.00,weatherlink.com 1.10,2013-11-13 09:08:00,
2013-11-13 01:23:00,58.9,19.0,30.10,NNE,22,0.0,0.0,21,0.00,,,0.00,weatherlink.com 1.10,2013-11-13 09:23:00,
2013-11-13 01:38:00,59.0,18.0,30.10,North,8,0.0,0.0,20,0.00,,,0.00,weatherlink.com 1.10,2013-11-13 09:38:00,
2013-11-13 01:53:00,59.2,18.0,30.09,North,6,0.0,1.0,20,0.00,,,0.00,weatherlink.com 1.10,2013-11-13 09:53:00,
2013-11-13 02:08:00,58.0,18.0,30.09,NNE,12,0.0,0.0,21,0.00,,,0.00,weatherlink.com 1.10,2013-11-13 10:08:00,
2013-11-13 02:23:00,59.0,19.0,30.08,NNE,14,0.0,0.0,21,0.00,,,0.00,weatherlink.com 1.10,2013-11-13 10:23:00,
2013-11-13 02:38:00,57.8,19.0,30.08,North,8,0.0,0.0,22,0.00,,,0.00,weatherlink.com 1.10,2013-11-13 10:38:00,
2013-11-13 02:53:00,57.7,19.0,30.08,North,11,0.0,0.0,22,0.00,,,0.00,weatherlink.com 1.10,2013-11-13 10:53:00,
2013-11-13 03:08:00,58.3,18.0,30.08,North,351,0.0,0.0,21,0.00,,,0.00,weatherlink.com 1.10,2013-11-13 11:08:00,
2013-11-13 03:23:00,58.0,18.0,30.07,North,1,0.0,0.0,21,0.00,,,0.00,weatherlink.com 1.10,2013-11-13 11:23:00,
2013-11-13 03:38:00,60.2,18.0,30.07,North,352,0.0,2.0,19,0.00,,,0.00,weatherlink.com 1.10,2013-11-13 11:38:00,
2013-11-13 03:53:00,60.7,20.0,30.06,North,354,0.0,1.0,21,0.00,,,0.00,weatherlink.com 1.10,2013-11-13 11:53:00,
2013-11-13 04:08:00,58.4,23.0,30.06,NNE,20,0.0,0.0,25,0.00,,,0.00,weatherlink.com 1.10,2013-11-13 12:08:00,
2013-11-13 04:23:00,59.5,23.0,30.07,North,359,0.0,2.0,25,0.00,,,0.00,weatherlink.com 1.10,2013-11-13 12:23:00,
2013-11-13 04:38:00,59.4,23.0,30.06,NNE,23,0.0,0.0,25,0.00,,,0.00,weatherlink.com 1.10,2013-11-13 12:38:00,
2013-11-13 04:53:00,58.2,23.0,30.06,NNE,12,0.0,0.0,26,0.00,,,0.00,weatherlink.com 1.10,2013-11-13 12:53:00,
2013-11-13 05:08:00,57.0,23.0,30.06,NNE,15,0.0,0.0,27,0.00,,,0.00,weatherlink.com 1.10,2013-11-13 13:08:00,
2013-11-13 05:23:00,58.2,23.0,30.06,North,359,0.0,0.0,26,0.00,,,0.00,weatherlink.com 1.10,2013-11-13 13:23:00,
2013-11-13 05:38:00,58.6,24.0,30.06,North,355,0.0,1.0,26,0.00,,,0.00,weatherlink.com 1.10,2013-11-13 13:38:00,
2013-11-13 05:53:00,58.4,23.0,30.05,North,8,0.0,0.0,26,0.00,,,0.00,weatherlink.com 1.10,2013-11-13 13:53:00,
2013-11-13 06:08:00,56.5,24.0,30.05,NNE,27,0.0,0.0,29,0.00,,,0.00,weatherlink.com 1.10,2013-11-13 14:08:00,
2013-11-13 06:23:00,56.0,24.0,30.05,North,11,0.0,0.0,29,0.00,,,0.00,weatherlink.com 1.10,2013-11-13 14:23:00,
2013-11-13 06:38:00,55.8,25.0,30.05,NE,34,0.0,0.0,30,0.00,,,0.00,weatherlink.com 1.10,2013-11-13 14:38:00,
2013-11-13 06:53:00,55.4,26.0,30.05,NE,35,0.0,0.0,32,0.00,,,0.00,weatherlink.com 1.10,2013-11-13 14:53:00,
2013-11-13 07:08:00,55.1,26.0,30.05,NNE,22,0.0,0.0,33,0.00,,,0.00,weatherlink.com 1.10,2013-11-13 15:08:00,
2013-11-13 07:23:00,56.7,28.0,30.06,NNE,26,0.0,0.0,33,0.00,,,0.00,weatherlink.com 1.10,2013-11-13 15:23:00,
2013-11-13 07:38:00,58.8,30.0,30.06,NE,56,0.0,0.0,34,0.00,,,0.00,weatherlink.com 1.10,2013-11-13 15:38:00,
2013-11-13 07:53:00,59.9,32.0,30.06,NE,46,0.0,0.0,35,0.00,,,0.00,weatherlink.com 1.10,2013-11-13 15:53:00,
2013-11-13 08:08:00,61.7,31.0,30.07,ENE,60,0.0,0.0,32,0.00,,,0.00,weatherlink.com 1.10,2013-11-13 16:08:00,
2013-11-13 08:23:00,64.4,29.0,30.06,SE,124,0.0,0.0,26,0.00,,,0.00,weatherlink.com 1.10,2013-11-13 16:23:00,
2013-11-13 08:38:00,66.5,28.0,30.06,ESE,114,0.0,0.0,24,0.00,,,0.00,weatherlink.com 1.10,2013-11-13 16:38:00,
2013-11-13 08:53:00,67.8,27.0,30.06,SW,217,0.0,0.0,22,0.00,,,0.00,weatherlink.com 1.10,2013-11-13 16:53:00,
2013-11-13 09:08:00,68.5,26.0,30.06,ESE,103,0.0,0.0,20,0.00,,,0.00,weatherlink.com 1.10,2013-11-13 17:08:00,
2013-11-13 09:23:00,69.3,26.0,30.05,South,173,0.0,0.0,20,0.00,,,0.00,weatherlink.com 1.10,2013-11-13 17:23:00,
2013-11-13 09:38:00,70.0,26.0,30.05,SE,144,0.0,1.0,19,0.00,,,0.00,weatherlink.com 1.10,2013-11-13 17:38:00,
2013-11-13 09:53:00,69.7,26.0,30.05,SSW,201,0.0,7.0,19,0.00,,,0.00,weatherlink.com 1.10,2013-11-13 17:53:00,
2013-11-13 10:08:00,69.7,24.0,30.05,ESE,107,0.0,2.0,18,0.00,,,0.00,weatherlink.com 1.10,2013-11-13 18:08:00,
2013-11-13 10:23:00,70.1,26.0,30.05,SSW,203,0.0,1.0,19,0.00,,,0.00,weatherlink.com 1.10,2013-11-13 18:23:00,
2013-11-13 10:38:00,70.3,25.0,30.05,SW,221,0.0,4.0,18,0.00,,,0.00,weatherlink.com 1.10,2013-11-13 18:38:00,
2013-11-13 10:53:00,70.7,24.0,30.04,SSE,152,0.0,3.0,17,0.00,,,0.00,weatherlink.com 1.10,2013-11-13 18:53:00,
2013-11-13 11:08:00,71.3,24.0,30.04,SSW,203,0.0,2.0,17,0.00,,,0.00,weatherlink.com 1.10,2013-11-13 19:08:00,
2013-11-13 11:23:00,71.1,23.0,30.03,SSW,210,0.0,1.0,16,0.00,,,0.00,weatherlink.com 1.10,2013-11-13 19:23:00,
2013-11-13 11:38:00,71.5,24.0,30.02,SSE,166,0.0,2.0,17,0.00,,,0.00,weatherlink.com 1.10,2013-11-13 19:38:00,
2013-11-13 11:53:00,72.1,25.0,30.01,SW,233,0.0,2.0,17,0.00,,,0.00,weatherlink.com 1.10,2013-11-13 19:53:00,
2013-11-13 12:09:00,72.0,23.0,30.00,SSE,155,0.0,1.0,16,0.00,,,0.00,weatherlink.com 1.10,2013-11-13 20:09:00,
2013-11-13 12:24:00,72.3,25.0,30.00,South,176,0.0,0.0,17,0.00,,,0.00,weatherlink.com 1.10,2013-11-13 20:24:00,
2013-11-13 12:39:00,72.7,24.0,29.99,ENE,77,0.0,0.0,16,0.00,,,0.00,weatherlink.com 1.10,2013-11-13 20:39:00,
2013-11-13 12:54:00,72.5,25.0,29.98,SSW,210,0.0,0.0,17,0.00,,,0.00,weatherlink.com 1.10,2013-11-13 20:54:00,
2013-11-13 13:09:00,72.9,25.0,29.98,SW,215,0.0,1.0,17,0.00,,,0.00,weatherlink.com 1.10,2013-11-13 21:09:00,
2013-11-13 13:24:00,72.8,25.0,29.97,SE,136,0.0,2.0,17,0.00,,,0.00,weatherlink.com 1.10,2013-11-13 21:24:00,
2013-11-13 13:39:00,71.8,26.0,29.97,East,85,0.0,1.0,18,0.00,,,0.00,weatherlink.com 1.10,2013-11-13 21:39:00,
2013-11-13 13:54:00,71.2,28.0,29.97,NE,49,0.0,1.0,20,0.00,,,0.00,weatherlink.com 1.10,2013-11-13 21:54:00,
2013-11-13 14:09:00,72.4,28.0,29.96,SW,222,0.0,1.0,19,0.00,,,0.00,weatherlink.com 1.10,2013-11-13 22:09:00,
2013-11-13 14:39:00,72.6,28.0,29.95,SSW,205,0.0,2.0,19,0.00,,,0.00,weatherlink.com 1.10,2013-11-13 22:39:00,
2013-11-13 14:54:00,72.3,28.0,29.95,WSW,243,0.0,2.0,19,0.00,,,0.00,weatherlink.com 1.10,2013-11-13 22:54:00,
2013-11-13 15:09:00,72.2,28.0,29.95,SSW,211,0.0,1.0,19,0.00,,,0.00,weatherlink.com 1.10,2013-11-13 23:09:00,
2013-11-13 15:24:00,70.8,26.0,29.95,SW,225,0.0,1.0,19,0.00,,,0.00,weatherlink.com 1.10,2013-11-13 23:24:00,
2013-11-13 15:39:00,70.1,26.0,29.95,ESE,119,0.0,0.0,19,0.00,,,0.00,weatherlink.com 1.10,2013-11-13 23:39:00,
2013-11-13 15:55:00,69.3,25.0,29.95,East,95,0.0,0.0,19,0.00,,,0.00,weatherlink.com 1.10,2013-11-13 23:55:00,
2013-11-13 16:09:00,68.7,26.0,29.95,ESE,118,0.0,0.0,20,0.00,,,0.00,weatherlink.com 1.10,2013-11-14 00:09:00,
2013-11-13 16:24:00,67.5,26.0,29.94,East,83,0.0,0.0,21,0.00,,,0.00,weatherlink.com 1.10,2013-11-14 00:24:00,
2013-11-13 16:39:00,65.3,25.0,29.95,East,98,0.0,0.0,22,0.00,,,0.00,weatherlink.com 1.10,2013-11-14 00:39:00,
2013-11-13 16:54:00,62.2,26.0,29.95,North,349,0.0,0.0,25,0.00,,,0.00,weatherlink.com 1.10,2013-11-14 00:54:00,
2013-11-13 17:09:00,59.7,26.0,29.95,NNE,16,0.0,0.0,28,0.00,,,0.00,weatherlink.com 1.10,2013-11-14 01:09:00,
2013-11-13 17:24:00,58.7,26.0,29.95,NNE,19,0.0,0.0,29,0.00,,,0.00,weatherlink.com 1.10,2013-11-14 01:24:00,
2013-11-13 17:39:00,58.1,26.0,29.96,NNE,18,0.0,0.0,29,0.00,,,0.00,weatherlink.com 1.10,2013-11-14 01:39:00,
2013-11-13 17:54:00,59.7,26.0,29.97,North,351,0.0,1.0,28,0.00,,,0.00,weatherlink.com 1.10,2013-11-14 01:54:00,
2013-11-13 18:09:00,60.3,26.0,29.97,NNW,338,0.0,1.0,27,0.00,,,0.00,weatherlink.com 1.10,2013-11-14 02:09:00,
2013-11-13 18:24:00,60.5,26.0,29.98,NNE,18,0.0,2.0,27,0.00,,,0.00,weatherlink.com 1.10,2013-11-14 02:24:00,
2013-11-13 18:39:00,60.6,26.0,29.98,NNW,346,1.0,1.0,27,0.00,,,0.00,weatherlink.com 1.10,2013-11-14 02:39:00,
2013-11-13 18:54:00,60.4,26.0,29.98,North,1,0.0,1.0,27,0.00,,,0.00,weatherlink.com 1.10,2013-11-14 02:54:00,
2013-11-13 19:09:00,59.9,27.0,29.98,North,359,0.0,0.0,28,0.00,,,0.00,weatherlink.com 1.10,2013-11-14 03:09:00,
2013-11-13 19:24:00,60.2,26.0,29.99,North,8,0.0,1.0,27,0.00,,,0.00,weatherlink.com 1.10,2013-11-14 03:24:00,
2013-11-13 19:40:00,59.7,26.0,29.98,North,357,0.0,1.0,28,0.00,,,0.00,weatherlink.com 1.10,2013-11-14 03:40:00,
2013-11-13 19:55:00,59.7,26.0,29.98,North,5,0.0,1.0,28,0.00,,,0.00,weatherlink.com 1.10,2013-11-14 03:55:00,
2013-11-13 20:10:00,59.5,26.0,29.98,NNW,332,1.0,1.0,28,0.00,,,0.00,weatherlink.com 1.10,2013-11-14 04:10:00,
2013-11-13 20:25:00,59.6,26.0,29.98,NNW,347,2.0,2.0,28,0.00,,,0.00,weatherlink.com 1.10,2013-11-14 04:25:00,
2013-11-13 20:40:00,59.5,26.0,29.98,NNW,338,0.0,1.0,28,0.00,,,0.00,weatherlink.com 1.10,2013-11-14 04:40:00,
2013-11-13 20:55:00,59.5,26.0,29.99,North,359,0.0,3.0,28,0.00,,,0.00,weatherlink.com 1.10,2013-11-14 04:55:00,
2013-11-13 21:10:00,59.0,25.0,29.99,NNE,13,0.0,1.0,27,0.00,,,0.00,weatherlink.com 1.10,2013-11-14 05:10:00,
2013-11-13 21:25:00,57.0,25.0,29.98,NNE,16,0.0,0.0,29,0.00,,,0.00,weatherlink.com 1.10,2013-11-14 05:25:00,
2013-11-13 21:40:00,57.8,25.0,29.98,NNW,347,0.0,0.0,28,0.00,,,0.00,weatherlink.com 1.10,2013-11-14 05:40:00,
2013-11-13 21:55:00,58.3,23.0,29.98,North,356,0.0,1.0,26,0.00,,,0.00,weatherlink.com 1.10,2013-11-14 05:55:00,
2013-11-13 22:10:00,57.8,22.0,29.98,North,1,0.0,0.0,25,0.00,,,0.00,weatherlink.com 1.10,2013-11-14 06:10:00,
2013-11-13 22:25:00,57.9,21.0,29.99,NNE,13,0.0,1.0,24,0.00,,,0.00,weatherlink.com 1.10,2013-11-14 06:25:00,
2013-11-13 22:40:00,58.9,22.0,29.98,North,349,0.0,3.0,24,0.00,,,0.00,weatherlink.com 1.10,2013-11-14 06:40:00,
2013-11-13 22:55:00,59.5,21.0,29.98,NNW,330,0.0,3.0,23,0.00,,,0.00,weatherlink.com 1.10,2013-11-14 06:55:00,
2013-11-13 23:10:00,59.7,22.0,29.97,North,349,0.0,1.0,23,0.00,,,0.00,weatherlink.com 1.10,2013-11-14 07:10:00,
2013-11-13 23:25:00,59.1,22.0,29.97,NE,35,0.0,5.0,24,0.00,,,0.00,weatherlink.com 1.10,2013-11-14 07:25:00,
2013-11-13 23:40:00,59.1,21.0,29.97,NNE,25,0.0,1.0,23,0.00,,,0.00,weatherlink.com 1.10,2013-11-14 07:40:00,
2013-11-13 23:55:00,56.3,20.0,29.98,NNE,15,0.0,0.0,24,0.00,,,0.00,weatherlink.com 1.10,2013-11-14 07:55:00,